Time,TemperatureF,DewpointF,PressureIn,WindDirection,WindDirectionDegrees,WindSpeedMPH,WindSpeedGustMPH,Humidity,HourlyPrecipIn,Conditions,Clouds,dailyrainin,SoftwareType,DateUTC
2013-06-19 00:01:00,66.7,64.9,29.95,North,357,0.0,0.0,94,0.00,,,0.00,VWS V13.01,2013-06-19 05:01:00,
2013-06-19 00:06:00,66.5,64.5,29.95,North,357,0.0,0.0,93,0.00,,,0.00,VWS V13.01,2013-06-19 05:06:00,
2013-06-19 00:11:00,66.5,64.2,29.95,North,357,0.0,0.0,92,0.00,,,0.00,VWS V13.01,2013-06-19 05:11:00,
2013-06-19 00:16:00,66.4,64.0,29.95,North,357,0.0,0.0,92,0.00,,,0.00,VWS V13.01,2013-06-19 05:16:00,
2013-06-19 00:21:00,66.2,63.8,29.95,North,357,0.0,0.0,92,0.00,,,0.00,VWS V13.01,2013-06-19 05:21:00,
2013-06-19 00:26:00,66.2,63.8,29.95,North,357,0.0,0.0,92,0.00,,,0.00,VWS V13.01,2013-06-19 05:26:00,
2013-06-19 00:31:00,66.0,63.6,29.95,North,357,0.0,0.0,92,0.00,,,0.00,VWS V13.01,2013-06-19 05:31:00,
2013-06-19 00:36:00,65.8,63.7,29.95,North,357,0.0,0.0,93,0.00,,,0.00,VWS V13.01,2013-06-19 05:36:00,
2013-06-19 00:41:00,65.8,64.7,29.95,North,357,0.0,0.0,96,0.00,,,0.00,VWS V13.01,2013-06-19 05:41:00,
2013-06-19 00:46:00,65.6,64.8,29.92,North,357,0.0,0.0,97,0.00,,,0.00,VWS V13.01,2013-06-19 05:46:00,
2013-06-19 00:51:00,65.6,64.5,29.92,North,357,0.0,0.0,96,0.00,,,0.00,VWS V13.01,2013-06-19 05:51:00,
2013-06-19 00:56:00,65.5,64.3,29.92,North,357,0.0,0.0,96,0.00,,,0.00,VWS V13.01,2013-06-19 05:56:00,
2013-06-19 01:01:00,65.5,64.3,29.95,North,357,0.0,0.0,96,0.00,,,0.00,VWS V13.01,2013-06-19 06:01:00,
2013-06-19 01:06:00,65.3,63.8,29.95,North,357,0.0,0.0,95,0.00,,,0.00,VWS V13.01,2013-06-19 06:06:00,
2013-06-19 01:11:00,65.1,63.6,29.95,North,357,0.0,0.0,95,0.00,,,0.00,VWS V13.01,2013-06-19 06:11:00,
2013-06-19 01:16:00,65.1,63.6,29.95,North,357,0.0,0.0,95,0.00,,,0.00,VWS V13.01,2013-06-19 06:16:00,
2013-06-19 01:21:00,64.9,63.8,29.95,North,357,0.0,0.0,96,0.00,,,0.00,VWS V13.01,2013-06-19 06:21:00,
2013-06-19 01:26:00,64.9,64.1,29.95,North,357,0.0,0.0,97,0.00,,,0.00,VWS V13.01,2013-06-19 06:26:00,
2013-06-19 01:31:00,64.7,63.9,29.95,North,357,0.0,0.0,97,0.00,,,0.00,VWS V13.01,2013-06-19 06:31:00,
2013-06-19 01:36:00,64.7,63.9,29.95,North,357,0.0,0.0,97,0.00,,,0.00,VWS V13.01,2013-06-19 06:36:00,
2013-06-19 01:40:00,64.6,64.0,29.95,North,357,0.0,0.0,98,0.00,,,0.00,VWS V13.01,2013-06-19 06:40:00,
2013-06-19 01:45:00,64.4,63.8,29.95,North,357,0.0,0.0,98,0.00,,,0.00,VWS V13.01,2013-06-19 06:45:00,
2013-06-19 01:50:00,64.2,63.6,29.95,North,357,0.0,0.0,98,0.00,,,0.00,VWS V13.01,2013-06-19 06:50:00,
2013-06-19 01:55:00,64.2,63.9,29.95,North,357,0.0,0.0,99,0.00,,,0.00,VWS V13.01,2013-06-19 06:55:00,
2013-06-19 02:00:00,64.0,64.0,29.95,North,357,0.0,0.0,100,0.00,,,0.00,VWS V13.01,2013-06-19 07:00:00,
2013-06-19 02:05:00,63.8,63.8,29.95,North,357,0.0,0.0,100,0.00,,,0.00,VWS V13.01,2013-06-19 07:05:00,
2013-06-19 02:10:00,63.8,63.8,29.95,North,357,0.0,0.0,100,0.00,,,0.00,VWS V13.01,2013-06-19 07:10:00,
2013-06-19 02:15:00,63.7,63.7,29.95,North,357,0.0,0.0,100,0.00,,,0.00,VWS V13.01,2013-06-19 07:15:00,
2013-06-19 02:20:00,63.7,63.7,29.95,North,357,0.0,0.0,100,0.00,,,0.00,VWS V13.01,2013-06-19 07:20:00,
2013-06-19 02:25:00,63.7,63.7,29.95,North,357,0.0,0.0,100,0.00,,,0.00,VWS V13.01,2013-06-19 07:25:00,
2013-06-19 02:30:00,63.5,63.5,29.95,North,357,0.0,0.0,100,0.00,,,0.00,VWS V13.01,2013-06-19 07:30:00,
2013-06-19 02:35:00,63.3,63.3,29.95,North,357,0.0,0.0,100,0.00,,,0.00,VWS V13.01,2013-06-19 07:35:00,
2013-06-19 02:40:00,63.5,63.5,29.95,North,357,0.0,0.0,100,0.00,,,0.00,VWS V13.01,2013-06-19 07:40:00,
2013-06-19 02:45:00,63.3,63.3,29.95,North,357,0.0,0.0,100,0.00,,,0.00,VWS V13.01,2013-06-19 07:45:00,
2013-06-19 02:50:00,63.3,63.3,29.95,North,357,0.0,0.0,100,0.00,,,0.00,VWS V13.01,2013-06-19 07:50:00,
2013-06-19 02:55:00,63.1,63.1,29.95,North,357,0.0,0.0,100,0.00,,,0.00,VWS V13.01,2013-06-19 07:55:00,
2013-06-19 03:00:00,63.1,63.1,29.95,North,357,0.0,0.0,100,0.00,,,0.00,VWS V13.01,2013-06-19 08:00:00,
2013-06-19 03:05:00,63.1,63.1,29.95,North,357,0.0,0.0,100,0.00,,,0.00,VWS V13.01,2013-06-19 08:05:00,
2013-06-19 03:10:00,63.1,63.1,29.95,North,357,0.0,0.0,100,0.00,,,0.00,VWS V13.01,2013-06-19 08:10:00,
2013-06-19 03:15:00,62.9,62.9,29.95,North,357,0.0,0.0,100,0.00,,,0.00,VWS V13.01,2013-06-19 08:15:00,
2013-06-19 03:20:00,62.9,62.9,29.95,North,357,0.0,0.0,100,0.00,,,0.00,VWS V13.01,2013-06-19 08:20:00,
2013-06-19 03:25:00,62.8,62.8,29.95,North,357,0.0,0.0,100,0.00,,,0.00,VWS V13.01,2013-06-19 08:25:00,
2013-06-19 03:30:00,62.8,62.8,29.95,North,357,0.0,0.0,100,0.00,,,0.00,VWS V13.01,2013-06-19 08:30:00,
2013-06-19 03:35:00,62.8,62.8,29.95,North,357,0.0,0.0,100,0.00,,,0.00,VWS V13.01,2013-06-19 08:35:00,
2013-06-19 03:40:00,62.6,62.6,29.95,North,357,0.0,0.0,100,0.00,,,0.00,VWS V13.01,2013-06-19 08:40:00,
2013-06-19 03:45:00,62.6,62.6,29.95,North,357,0.0,0.0,100,0.00,,,0.00,VWS V13.01,2013-06-19 08:45:00,
2013-06-19 03:50:00,62.6,62.6,29.95,North,357,0.0,0.0,100,0.00,,,0.00,VWS V13.01,2013-06-19 08:50:00,
2013-06-19 03:55:00,62.6,62.6,29.95,North,357,0.0,0.0,100,0.00,,,0.00,VWS V13.01,2013-06-19 08:55:00,
2013-06-19 04:00:00,62.6,62.6,29.95,North,357,0.0,0.0,100,0.00,,,0.00,VWS V13.01,2013-06-19 09:00:00,
2013-06-19 04:05:00,62.6,62.6,29.95,North,357,0.0,0.0,100,0.00,,,0.00,VWS V13.01,2013-06-19 09:05:00,
2013-06-19 04:10:00,62.4,62.4,29.95,North,357,0.0,0.0,100,0.00,,,0.00,VWS V13.01,2013-06-19 09:10:00,
2013-06-19 04:15:00,62.4,62.4,29.95,North,357,0.0,0.0,100,0.00,,,0.00,VWS V13.01,2013-06-19 09:15:00,
2013-06-19 04:20:00,62.2,62.2,29.95,North,357,0.0,0.0,100,0.00,,,0.00,VWS V13.01,2013-06-19 09:20:00,
2013-06-19 04:25:00,62.0,62.0,29.95,North,357,0.0,0.0,100,0.00,,,0.00,VWS V13.01,2013-06-19 09:25:00,
2013-06-19 04:30:00,62.2,62.2,29.95,North,357,0.0,0.0,100,0.00,,,0.00,VWS V13.01,2013-06-19 09:30:00,
2013-06-19 04:35:00,62.2,62.2,29.95,North,357,0.0,0.0,100,0.00,,,0.00,VWS V13.01,2013-06-19 09:35:00,
2013-06-19 04:40:00,62.2,62.2,29.95,North,357,0.0,0.0,100,0.00,,,0.00,VWS V13.01,2013-06-19 09:40:00,
2013-06-19 04:45:00,62.0,62.0,29.95,North,357,0.0,0.0,100,0.00,,,0.00,VWS V13.01,2013-06-19 09:45:00,
2013-06-19 04:50:00,62.0,62.0,29.95,North,357,0.0,0.0,100,0.00,,,0.00,VWS V13.01,2013-06-19 09:50:00,
2013-06-19 04:55:00,62.0,62.0,29.95,North,357,0.0,0.0,100,0.00,,,0.00,VWS V13.01,2013-06-19 09:55:00,
2013-06-19 05:00:00,62.0,62.0,29.95,North,357,0.0,0.0,100,0.00,,,0.00,VWS V13.01,2013-06-19 10:00:00,
2013-06-19 05:05:00,62.0,62.0,29.95,North,357,0.0,0.0,100,0.00,,,0.00,VWS V13.01,2013-06-19 10:05:00,
2013-06-19 05:10:00,62.0,62.0,29.95,North,357,0.0,0.0,100,0.00,,,0.00,VWS V13.01,2013-06-19 10:10:00,
2013-06-19 05:15:00,61.9,61.9,29.95,North,357,0.0,0.0,100,0.00,,,0.00,VWS V13.01,2013-06-19 10:15:00,
2013-06-19 05:20:00,61.5,61.5,29.95,North,357,0.0,0.0,100,0.00,,,0.00,VWS V13.01,2013-06-19 10:20:00,
2013-06-19 05:25:00,61.3,61.3,29.95,North,357,0.0,0.0,100,0.00,,,0.00,VWS V13.01,2013-06-19 10:25:00,
2013-06-19 05:30:00,61.5,61.5,29.95,North,357,0.0,0.0,100,0.00,,,0.00,VWS V13.01,2013-06-19 10:30:00,
2013-06-19 05:35:00,61.3,61.3,29.95,North,357,0.0,0.0,100,0.00,,,0.00,VWS V13.01,2013-06-19 10:35:00,
2013-06-19 05:40:00,61.3,61.3,29.95,North,357,0.0,0.0,100,0.00,,,0.00,VWS V13.01,2013-06-19 10:40:00,
2013-06-19 05:45:00,61.1,61.1,29.95,North,357,0.0,0.0,100,0.00,,,0.00,VWS V13.01,2013-06-19 10:45:00,
2013-06-19 05:50:00,61.1,61.1,29.95,North,357,0.0,0.0,100,0.00,,,0.00,VWS V13.01,2013-06-19 10:50:00,
2013-06-19 05:55:00,61.1,61.1,29.95,North,357,0.0,0.0,100,0.00,,,0.00,VWS V13.01,2013-06-19 10:55:00,
2013-06-19 06:00:00,61.1,61.1,29.95,North,357,0.0,0.0,100,0.00,,,0.00,VWS V13.01,2013-06-19 11:00:00,
2013-06-19 06:05:00,61.1,61.1,29.95,North,357,0.0,0.0,100,0.00,,,0.00,VWS V13.01,2013-06-19 11:05:00,
2013-06-19 06:10:00,61.0,61.0,29.95,North,357,0.0,0.0,100,0.00,,,0.00,VWS V13.01,2013-06-19 11:10:00,
2013-06-19 06:15:00,61.0,61.0,29.98,North,357,0.0,0.0,100,0.00,,,0.00,VWS V13.01,2013-06-19 11:15:00,
2013-06-19 06:20:00,61.0,61.0,29.98,North,357,0.0,0.0,100,0.00,,,0.00,VWS V13.01,2013-06-19 11:20:00,
2013-06-19 06:25:00,61.0,61.0,29.98,North,357,0.0,0.0,100,0.00,,,0.00,VWS V13.01,2013-06-19 11:25:00,
2013-06-19 06:30:00,61.0,61.0,29.98,North,357,0.0,0.0,100,0.00,,,0.00,VWS V13.01,2013-06-19 11:30:00,
2013-06-19 06:35:00,61.1,61.1,29.98,North,357,0.0,0.0,100,0.00,,,0.00,VWS V13.01,2013-06-19 11:35:00,
2013-06-19 06:40:00,61.5,61.5,29.98,North,357,0.0,0.0,100,0.00,,,0.00,VWS V13.01,2013-06-19 11:40:00,
2013-06-19 06:45:00,61.7,61.7,29.98,North,357,0.0,0.0,100,0.00,,,0.00,VWS V13.01,2013-06-19 11:45:00,
2013-06-19 06:50:00,61.9,61.9,29.98,North,357,0.0,0.0,100,0.00,,,0.00,VWS V13.01,2013-06-19 11:50:00,
2013-06-19 06:55:00,61.9,61.9,29.98,North,357,0.0,0.0,100,0.00,,,0.00,VWS V13.01,2013-06-19 11:55:00,
2013-06-19 07:00:00,62.0,62.0,29.98,North,357,0.0,0.0,100,0.00,,,0.00,VWS V13.01,2013-06-19 12:00:00,
2013-06-19 07:05:00,62.2,62.2,29.98,North,357,0.0,0.0,100,0.00,,,0.00,VWS V13.01,2013-06-19 12:05:00,
2013-06-19 07:10:00,62.6,62.6,29.98,North,357,0.0,0.0,100,0.00,,,0.00,VWS V13.01,2013-06-19 12:10:00,
2013-06-19 07:15:00,62.9,62.9,29.98,North,357,0.0,0.0,100,0.00,,,0.00,VWS V13.01,2013-06-19 12:15:00,
2013-06-19 07:19:00,63.3,63.3,29.98,NNW,341,0.0,0.0,100,0.00,,,0.00,VWS V13.01,2013-06-19 12:19:00,
2013-06-19 07:24:00,63.8,63.8,29.98,NNW,341,0.0,0.0,100,0.00,,,0.00,VWS V13.01,2013-06-19 12:24:00,
2013-06-19 07:29:00,63.8,63.8,29.98,NW,326,0.0,0.0,100,0.00,,,0.00,VWS V13.01,2013-06-19 12:29:00,
2013-06-19 07:34:00,64.4,64.4,29.98,NW,326,0.0,0.0,100,0.00,,,0.00,VWS V13.01,2013-06-19 12:34:00,
2013-06-19 07:39:00,64.6,64.6,29.98,WNW,301,0.0,0.0,100,0.00,,,0.00,VWS V13.01,2013-06-19 12:39:00,
2013-06-19 07:44:00,65.1,65.1,30.01,WNW,301,0.0,0.0,100,0.00,,,0.00,VWS V13.01,2013-06-19 12:44:00,
2013-06-19 07:49:00,65.8,65.8,30.01,WNW,301,0.0,0.0,100,0.00,,,0.00,VWS V13.01,2013-06-19 12:49:00,
2013-06-19 07:54:00,66.5,66.5,30.01,WNW,301,0.0,0.0,100,0.00,,,0.00,VWS V13.01,2013-06-19 12:54:00,
2013-06-19 07:59:00,66.9,66.9,30.01,WNW,301,0.0,0.0,100,0.00,,,0.00,VWS V13.01,2013-06-19 12:59:00,
2013-06-19 08:04:00,67.1,67.1,30.01,WNW,301,0.0,0.0,100,0.00,,,0.00,VWS V13.01,2013-06-19 13:04:00,
2013-06-19 08:09:00,67.4,67.4,30.01,WNW,301,0.0,0.0,100,0.00,,,0.00,VWS V13.01,2013-06-19 13:09:00,
2013-06-19 08:14:00,67.8,67.8,30.01,East,97,0.0,0.0,100,0.00,,,0.00,VWS V13.01,2013-06-19 13:14:00,
2013-06-19 08:19:00,68.2,68.2,30.01,ESE,103,0.0,0.0,100,0.00,,,0.00,VWS V13.01,2013-06-19 13:19:00,
2013-06-19 08:24:00,67.8,67.8,30.01,NNE,21,2.7,2.7,100,0.00,,,0.00,VWS V13.01,2013-06-19 13:24:00,
2013-06-19 08:29:00,68.7,65.7,30.01,NE,50,2.2,2.2,90,0.00,,,0.00,VWS V13.01,2013-06-19 13:29:00,
2013-06-19 08:34:00,70.1,65.1,30.01,East,92,0.0,2.2,84,0.00,,,0.00,VWS V13.01,2013-06-19 13:34:00,
2013-06-19 08:39:00,70.5,64.0,30.01,East,84,2.7,2.7,80,0.00,,,0.00,VWS V13.01,2013-06-19 13:39:00,
2013-06-19 08:44:00,71.0,64.2,30.01,East,98,0.0,0.0,79,0.00,,,0.00,VWS V13.01,2013-06-19 13:44:00,
2013-06-19 08:49:00,70.9,63.3,30.01,ENE,74,2.2,2.7,77,0.00,,,0.00,VWS V13.01,2013-06-19 13:49:00,
2013-06-19 08:54:00,71.6,63.6,30.01,NE,50,0.0,0.0,76,0.00,,,0.00,VWS V13.01,2013-06-19 13:54:00,
2013-06-19 08:59:00,72.3,63.6,30.01,NE,56,0.0,0.0,74,0.00,,,0.00,VWS V13.01,2013-06-19 13:59:00,
2013-06-19 09:04:00,72.8,62.9,30.01,NNE,24,0.0,2.2,71,0.00,,,0.00,VWS V13.01,2013-06-19 14:04:00,
2013-06-19 09:09:00,73.4,63.4,30.01,East,88,2.7,2.7,71,0.00,,,0.00,VWS V13.01,2013-06-19 14:09:00,
2013-06-19 09:14:00,73.7,62.5,30.01,NNE,20,2.7,3.1,68,0.00,,,0.00,VWS V13.01,2013-06-19 14:14:00,
2013-06-19 09:19:00,73.9,63.1,30.01,NW,325,2.7,2.7,69,0.00,,,0.00,VWS V13.01,2013-06-19 14:19:00,
2013-06-19 09:24:00,74.1,62.9,30.01,North,8,0.0,0.0,68,0.00,,,0.00,VWS V13.01,2013-06-19 14:24:00,
2013-06-19 09:29:00,74.5,63.6,30.01,SE,131,0.0,2.2,69,0.00,,,0.00,VWS V13.01,2013-06-19 14:29:00,
2013-06-19 09:34:00,74.5,63.2,30.01,SE,129,0.0,2.7,68,0.00,,,0.00,VWS V13.01,2013-06-19 14:34:00,
2013-06-19 09:39:00,74.6,63.4,30.01,ESE,122,2.7,2.7,68,0.00,,,0.00,VWS V13.01,2013-06-19 14:39:00,
2013-06-19 09:44:00,75.4,64.5,30.01,SE,134,4.9,4.9,69,0.00,,,0.00,VWS V13.01,2013-06-19 14:44:00,
2013-06-19 09:49:00,75.9,63.7,30.01,South,185,4.9,4.9,66,0.00,,,0.00,VWS V13.01,2013-06-19 14:49:00,
2013-06-19 09:54:00,75.9,63.7,30.01,SSE,155,3.1,3.1,66,0.00,,,0.00,VWS V13.01,2013-06-19 14:54:00,
2013-06-19 09:59:00,76.3,64.5,30.01,SE,143,2.7,3.1,67,0.00,,,0.00,VWS V13.01,2013-06-19 14:59:00,
2013-06-19 10:04:00,76.6,63.5,30.01,NNE,31,3.1,3.6,64,0.00,,,0.00,VWS V13.01,2013-06-19 15:04:00,
2013-06-19 10:09:00,77.3,63.8,30.01,WSW,254,0.0,0.0,63,0.00,,,0.00,VWS V13.01,2013-06-19 15:09:00,
2013-06-19 10:14:00,77.0,63.9,30.01,WSW,252,2.7,3.1,64,0.00,,,0.00,VWS V13.01,2013-06-19 15:14:00,
2013-06-19 10:19:00,76.8,65.0,30.01,West,272,2.7,2.7,67,0.00,,,0.00,VWS V13.01,2013-06-19 15:19:00,
2013-06-19 10:24:00,77.3,64.2,30.01,NNW,346,0.0,0.0,64,0.00,,,0.00,VWS V13.01,2013-06-19 15:24:00,
2013-06-19 10:29:00,78.6,65.4,30.01,NE,35,3.1,3.1,64,0.00,,,0.00,VWS V13.01,2013-06-19 15:29:00,
2013-06-19 10:34:00,79.7,65.5,30.01,East,81,2.2,3.1,62,0.00,,,0.00,VWS V13.01,2013-06-19 15:34:00,
2013-06-19 10:39:00,80.0,65.4,30.01,East,87,3.1,3.6,61,0.00,,,0.00,VWS V13.01,2013-06-19 15:39:00,
2013-06-19 10:44:00,80.6,64.4,30.01,NW,316,0.0,0.0,58,0.00,,,0.00,VWS V13.01,2013-06-19 15:44:00,
2013-06-19 10:49:00,81.1,65.0,30.01,South,183,4.0,4.0,58,0.00,,,0.00,VWS V13.01,2013-06-19 15:49:00,
2013-06-19 10:54:00,81.5,64.8,30.01,WNW,285,0.0,0.0,57,0.00,,,0.00,VWS V13.01,2013-06-19 15:54:00,
2013-06-19 10:59:00,81.7,65.9,30.01,North,3,2.2,2.7,59,0.00,,,0.00,VWS V13.01,2013-06-19 15:59:00,
2013-06-19 11:04:00,82.2,65.0,30.01,NE,38,0.0,0.0,56,0.00,,,0.00,VWS V13.01,2013-06-19 16:04:00,
2013-06-19 11:09:00,82.2,64.4,30.01,SE,140,3.6,4.0,55,0.00,,,0.00,VWS V13.01,2013-06-19 16:09:00,
2013-06-19 11:14:00,81.3,65.1,30.01,SSE,151,2.7,4.9,58,0.00,,,0.00,VWS V13.01,2013-06-19 16:14:00,
2013-06-19 11:19:00,81.3,65.1,30.01,ESE,105,0.0,2.2,58,0.00,,,0.00,VWS V13.01,2013-06-19 16:19:00,
2013-06-19 11:24:00,81.3,64.1,30.01,ESE,118,5.4,5.4,56,0.00,,,0.00,VWS V13.01,2013-06-19 16:24:00,
2013-06-19 11:29:00,80.9,64.3,30.01,ESE,110,2.7,4.0,57,0.00,,,0.00,VWS V13.01,2013-06-19 16:29:00,
2013-06-19 11:34:00,80.8,63.6,30.01,ENE,68,3.1,3.1,56,0.00,,,0.00,VWS V13.01,2013-06-19 16:34:00,
2013-06-19 11:39:00,81.1,63.4,30.01,ENE,72,0.0,0.0,55,0.00,,,0.00,VWS V13.01,2013-06-19 16:39:00,
2013-06-19 11:44:00,81.5,64.3,30.01,SE,143,3.1,3.1,56,0.00,,,0.00,VWS V13.01,2013-06-19 16:44:00,
2013-06-19 11:49:00,81.8,65.6,30.01,ENE,59,3.1,3.1,58,0.00,,,0.00,VWS V13.01,2013-06-19 16:49:00,
2013-06-19 11:54:00,81.8,66.1,30.01,ENE,78,3.6,4.0,59,0.00,,,0.00,VWS V13.01,2013-06-19 16:54:00,
2013-06-19 11:59:00,81.7,65.0,30.01,ENE,76,3.6,3.6,57,0.00,,,0.00,VWS V13.01,2013-06-19 16:59:00,
2013-06-19 12:04:00,81.3,64.1,30.01,SSE,154,2.7,2.7,56,0.00,,,0.00,VWS V13.01,2013-06-19 17:04:00,
2013-06-19 12:09:00,81.1,64.0,30.01,SSW,197,5.4,5.4,56,0.00,,,0.00,VWS V13.01,2013-06-19 17:09:00,
2013-06-19 12:14:00,81.3,63.1,30.01,SSE,150,3.6,8.1,54,0.00,,,0.00,VWS V13.01,2013-06-19 17:14:00,
2013-06-19 12:19:00,81.5,62.7,30.01,South,184,10.1,10.1,53,0.00,,,0.00,VWS V13.01,2013-06-19 17:19:00,
2013-06-19 12:24:00,81.8,63.0,30.01,SSE,163,5.4,5.4,53,0.00,,,0.00,VWS V13.01,2013-06-19 17:24:00,
2013-06-19 12:29:00,82.2,62.8,30.01,SE,135,4.0,8.1,52,0.00,,,0.00,VWS V13.01,2013-06-19 17:29:00,
2013-06-19 12:34:00,82.2,62.8,30.01,SSE,147,4.0,4.9,52,0.00,,,0.00,VWS V13.01,2013-06-19 17:34:00,
2013-06-19 12:39:00,82.7,63.3,30.01,South,191,5.8,5.8,52,0.00,,,0.00,VWS V13.01,2013-06-19 17:39:00,
2013-06-19 12:44:00,82.6,63.7,30.01,South,182,2.7,2.7,53,0.00,,,0.00,VWS V13.01,2013-06-19 17:44:00,
2013-06-19 12:49:00,83.1,64.2,30.01,ESE,115,3.1,3.1,53,0.00,,,0.00,VWS V13.01,2013-06-19 17:49:00,
2013-06-19 12:54:00,83.5,63.5,30.01,ESE,119,6.3,6.3,51,0.00,,,0.00,VWS V13.01,2013-06-19 17:54:00,
2013-06-19 12:59:00,83.6,62.5,30.01,East,98,4.0,4.9,49,0.00,,,0.00,VWS V13.01,2013-06-19 17:59:00,
2013-06-19 13:04:00,83.5,62.9,30.01,SE,140,4.0,8.1,50,0.00,,,0.00,VWS V13.01,2013-06-19 18:04:00,
2013-06-19 13:09:00,83.5,62.3,30.01,South,170,8.3,8.3,49,0.00,,,0.00,VWS V13.01,2013-06-19 18:09:00,
2013-06-19 13:14:00,83.3,62.2,30.01,South,179,4.0,5.8,49,0.00,,,0.00,VWS V13.01,2013-06-19 18:14:00,
2013-06-19 13:19:00,84.0,62.8,30.01,South,188,5.8,5.8,49,0.00,,,0.00,VWS V13.01,2013-06-19 18:19:00,
2013-06-19 13:24:00,83.6,63.0,30.01,SSE,147,4.9,5.4,50,0.00,,,0.00,VWS V13.01,2013-06-19 18:24:00,
2013-06-19 13:29:00,84.0,62.2,29.98,SE,140,2.7,6.3,48,0.00,,,0.00,VWS V13.01,2013-06-19 18:29:00,
2013-06-19 13:34:00,84.0,61.6,29.98,ESE,123,3.6,5.8,47,0.00,,,0.00,VWS V13.01,2013-06-19 18:34:00,
2013-06-19 13:39:00,84.0,62.8,29.98,ESE,108,3.6,3.6,49,0.00,,,0.00,VWS V13.01,2013-06-19 18:39:00,
2013-06-19 13:44:00,84.4,63.1,29.98,East,84,5.8,5.8,49,0.00,,,0.00,VWS V13.01,2013-06-19 18:44:00,
2013-06-19 13:49:00,84.4,62.5,29.98,ESE,121,7.6,8.7,48,0.00,,,0.00,VWS V13.01,2013-06-19 18:49:00,
2013-06-19 13:54:00,84.5,62.7,29.98,SSW,196,4.0,4.9,48,0.00,,,0.00,VWS V13.01,2013-06-19 18:54:00,
2013-06-19 13:59:00,84.7,60.4,29.98,NE,51,6.3,8.3,44,0.00,,,0.00,VWS V13.01,2013-06-19 18:59:00,
2013-06-19 14:03:00,84.5,60.2,29.98,SE,143,4.0,6.3,44,0.00,,,0.00,VWS V13.01,2013-06-19 19:03:00,
2013-06-19 14:08:00,84.9,63.0,29.98,SE,128,3.6,5.4,48,0.00,,,0.00,VWS V13.01,2013-06-19 19:08:00,
2013-06-19 14:13:00,84.7,63.5,29.98,ENE,78,2.7,4.9,49,0.00,,,0.00,VWS V13.01,2013-06-19 19:13:00,
2013-06-19 14:18:00,84.7,62.9,29.98,ESE,122,5.4,5.8,48,0.00,,,0.00,VWS V13.01,2013-06-19 19:18:00,
2013-06-19 14:23:00,84.7,61.7,29.98,NE,41,3.1,4.0,46,0.00,,,0.00,VWS V13.01,2013-06-19 19:23:00,
2013-06-19 14:28:00,85.1,62.0,29.98,ENE,77,5.4,5.4,46,0.00,,,0.00,VWS V13.01,2013-06-19 19:28:00,
2013-06-19 14:33:00,84.7,61.0,29.98,East,86,4.9,4.9,45,0.00,,,0.00,VWS V13.01,2013-06-19 19:33:00,
2013-06-19 14:38:00,84.5,62.7,29.98,ENE,75,3.6,3.6,48,0.00,,,0.00,VWS V13.01,2013-06-19 19:38:00,
2013-06-19 14:43:00,85.1,63.8,29.98,SE,136,3.1,3.6,49,0.00,,,0.00,VWS V13.01,2013-06-19 19:43:00,
2013-06-19 14:48:00,85.6,63.7,29.98,ESE,120,5.4,8.3,48,0.00,,,0.00,VWS V13.01,2013-06-19 19:48:00,
2013-06-19 14:53:00,85.8,63.3,29.98,SSE,161,3.6,5.4,47,0.00,,,0.00,VWS V13.01,2013-06-19 19:53:00,
2013-06-19 14:58:00,85.4,61.7,29.98,South,183,5.8,5.8,45,0.00,,,0.00,VWS V13.01,2013-06-19 19:58:00,
2013-06-19 15:03:00,85.1,62.6,29.98,SSE,147,3.6,5.8,47,0.00,,,0.00,VWS V13.01,2013-06-19 20:03:00,
2013-06-19 15:08:00,85.1,63.2,29.98,SE,140,3.1,3.6,48,0.00,,,0.00,VWS V13.01,2013-06-19 20:08:00,
2013-06-19 15:13:00,85.3,64.0,29.98,SE,133,5.4,5.4,49,0.00,,,0.00,VWS V13.01,2013-06-19 20:13:00,
2013-06-19 15:18:00,85.4,63.5,29.98,SE,130,4.9,5.8,48,0.00,,,0.00,VWS V13.01,2013-06-19 20:18:00,
2013-06-19 15:23:00,85.4,63.5,29.98,SE,132,3.6,5.8,48,0.00,,,0.00,VWS V13.01,2013-06-19 20:23:00,
2013-06-19 15:28:00,86.0,64.0,29.98,ESE,115,4.0,6.3,48,0.00,,,0.00,VWS V13.01,2013-06-19 20:28:00,
2013-06-19 15:33:00,85.6,64.3,29.98,South,179,3.1,4.0,49,0.00,,,0.00,VWS V13.01,2013-06-19 20:33:00,
2013-06-19 15:38:00,85.4,64.1,29.98,SSE,165,5.8,5.8,49,0.00,,,0.00,VWS V13.01,2013-06-19 20:38:00,
2013-06-19 15:43:00,85.6,63.7,29.95,SSE,157,5.4,5.4,48,0.00,,,0.00,VWS V13.01,2013-06-19 20:43:00,
2013-06-19 15:48:00,85.8,63.9,29.95,ESE,117,5.4,6.3,48,0.00,,,0.00,VWS V13.01,2013-06-19 20:48:00,
2013-06-19 15:53:00,85.6,64.3,29.95,SE,143,3.1,5.8,49,0.00,,,0.00,VWS V13.01,2013-06-19 20:53:00,
2013-06-19 15:58:00,86.3,63.8,29.95,SSW,195,6.3,6.3,47,0.00,,,0.00,VWS V13.01,2013-06-19 20:58:00,
2013-06-19 16:03:00,86.2,63.0,29.95,NE,47,4.0,4.0,46,0.00,,,0.00,VWS V13.01,2013-06-19 21:03:00,
2013-06-19 16:08:00,86.0,62.8,29.95,South,171,4.9,5.8,46,0.00,,,0.00,VWS V13.01,2013-06-19 21:08:00,
2013-06-19 16:13:00,86.0,64.0,29.95,ESE,107,5.4,5.4,48,0.00,,,0.00,VWS V13.01,2013-06-19 21:13:00,
2013-06-19 16:18:00,86.0,64.0,29.95,ESE,118,4.5,6.3,48,0.00,,,0.00,VWS V13.01,2013-06-19 21:18:00,
2013-06-19 16:23:00,86.3,64.3,29.95,South,176,4.9,4.9,48,0.00,,,0.00,VWS V13.01,2013-06-19 21:23:00,
2013-06-19 16:28:00,86.3,63.1,29.95,SE,128,5.8,8.1,46,0.00,,,0.00,VWS V13.01,2013-06-19 21:28:00,
2013-06-19 16:33:00,86.0,63.4,29.95,ENE,59,3.1,3.1,47,0.00,,,0.00,VWS V13.01,2013-06-19 21:33:00,
2013-06-19 16:38:00,86.2,63.0,29.95,ESE,122,3.6,7.6,46,0.00,,,0.00,VWS V13.01,2013-06-19 21:38:00,
2013-06-19 16:43:00,85.8,63.9,29.95,ESE,112,4.9,8.3,48,0.00,,,0.00,VWS V13.01,2013-06-19 21:43:00,
2013-06-19 16:48:00,85.6,63.7,29.95,East,82,5.8,5.8,48,0.00,,,0.00,VWS V13.01,2013-06-19 21:48:00,
2013-06-19 16:53:00,85.6,63.7,29.95,SSW,192,4.5,4.5,48,0.00,,,0.00,VWS V13.01,2013-06-19 21:53:00,
2013-06-19 16:58:00,86.0,64.0,29.95,SE,133,4.0,6.3,48,0.00,,,0.00,VWS V13.01,2013-06-19 21:58:00,
2013-06-19 17:03:00,86.0,64.0,29.95,South,181,3.6,3.6,48,0.00,,,0.00,VWS V13.01,2013-06-19 22:03:00,
2013-06-19 17:08:00,86.2,64.2,29.95,ESE,119,3.6,4.0,48,0.00,,,0.00,VWS V13.01,2013-06-19 22:08:00,
2013-06-19 17:13:00,85.8,63.3,29.95,East,82,5.4,6.3,47,0.00,,,0.00,VWS V13.01,2013-06-19 22:13:00,
2013-06-19 17:18:00,85.6,63.7,29.95,ESE,112,4.0,5.8,48,0.00,,,0.00,VWS V13.01,2013-06-19 22:18:00,
2013-06-19 17:23:00,85.4,63.5,29.95,East,90,5.4,5.4,48,0.00,,,0.00,VWS V13.01,2013-06-19 22:23:00,
2013-06-19 17:28:00,85.3,63.4,29.95,East,87,3.6,4.0,48,0.00,,,0.00,VWS V13.01,2013-06-19 22:28:00,
2013-06-19 17:33:00,85.4,63.5,29.95,ENE,76,2.7,8.1,48,0.00,,,0.00,VWS V13.01,2013-06-19 22:33:00,
2013-06-19 17:38:00,85.6,63.7,29.95,East,80,4.0,5.8,48,0.00,,,0.00,VWS V13.01,2013-06-19 22:38:00,
2013-06-19 17:43:00,85.6,63.7,29.95,East,89,3.1,3.6,48,0.00,,,0.00,VWS V13.01,2013-06-19 22:43:00,
2013-06-19 17:48:00,85.6,64.3,29.92,South,171,2.2,3.1,49,0.00,,,0.00,VWS V13.01,2013-06-19 22:48:00,
2013-06-19 17:53:00,85.6,63.7,29.92,SE,143,3.1,4.9,48,0.00,,,0.00,VWS V13.01,2013-06-19 22:53:00,
2013-06-19 17:58:00,85.6,63.7,29.92,NE,55,3.1,4.0,48,0.00,,,0.00,VWS V13.01,2013-06-19 22:58:00,
2013-06-19 18:03:00,85.6,64.3,29.92,East,87,5.4,5.4,49,0.00,,,0.00,VWS V13.01,2013-06-19 23:03:00,
2013-06-19 18:08:00,85.4,63.5,29.92,SE,143,4.9,7.6,48,0.00,,,0.00,VWS V13.01,2013-06-19 23:08:00,
2013-06-19 18:13:00,85.3,64.0,29.92,East,89,5.4,5.4,49,0.00,,,0.00,VWS V13.01,2013-06-19 23:13:00,
2013-06-19 18:18:00,85.1,63.8,29.92,East,89,4.9,5.4,49,0.00,,,0.00,VWS V13.01,2013-06-19 23:18:00,
2013-06-19 18:23:00,84.9,63.6,29.92,East,94,3.1,3.1,49,0.00,,,0.00,VWS V13.01,2013-06-19 23:23:00,
2013-06-19 18:28:00,85.1,63.8,29.92,SSE,155,4.0,4.0,49,0.00,,,0.00,VWS V13.01,2013-06-19 23:28:00,
2013-06-19 18:33:00,85.1,63.8,29.92,East,100,3.1,3.6,49,0.00,,,0.00,VWS V13.01,2013-06-19 23:33:00,
2013-06-19 18:38:00,84.7,63.5,29.92,SE,129,2.7,2.7,49,0.00,,,0.00,VWS V13.01,2013-06-19 23:38:00,
2013-06-19 18:43:00,84.5,63.3,29.92,SE,124,3.1,4.0,49,0.00,,,0.00,VWS V13.01,2013-06-19 23:43:00,
2013-06-19 18:48:00,84.5,63.9,29.95,South,182,5.8,5.8,50,0.00,,,0.00,VWS V13.01,2013-06-19 23:48:00,
2013-06-19 18:53:00,84.4,63.7,29.95,ESE,121,4.9,4.9,50,0.00,,,0.00,VWS V13.01,2013-06-19 23:53:00,
2013-06-19 18:58:00,83.8,63.8,29.95,ESE,120,2.7,3.6,51,0.00,,,0.00,VWS V13.01,2013-06-19 23:58:00,
2013-06-19 19:03:00,83.5,63.5,29.95,SE,133,3.1,3.1,51,0.00,,,0.00,VWS V13.01,2013-06-20 00:03:00,
2013-06-19 19:08:00,83.3,63.8,29.95,SSE,151,2.7,2.7,52,0.00,,,0.00,VWS V13.01,2013-06-20 00:08:00,
2013-06-19 19:13:00,83.3,63.8,29.95,SSE,151,2.2,2.2,52,0.00,,,0.00,VWS V13.01,2013-06-20 00:13:00,
2013-06-19 19:18:00,82.9,64.1,29.95,ENE,71,2.7,2.7,53,0.00,,,0.00,VWS V13.01,2013-06-20 00:18:00,
2013-06-19 19:23:00,82.2,63.9,29.95,ENE,71,0.0,0.0,54,0.00,,,0.00,VWS V13.01,2013-06-20 00:23:00,
2013-06-19 19:28:00,81.8,63.6,29.95,ESE,108,2.2,2.7,54,0.00,,,0.00,VWS V13.01,2013-06-20 00:28:00,
2013-06-19 19:33:00,81.5,63.8,29.95,East,95,2.7,2.7,55,0.00,,,0.00,VWS V13.01,2013-06-20 00:33:00,
2013-06-19 19:38:00,81.3,63.1,29.95,NE,53,3.6,3.6,54,0.00,,,0.00,VWS V13.01,2013-06-20 00:38:00,
2013-06-19 19:43:00,81.3,63.6,29.95,East,82,2.2,2.2,55,0.00,,,0.00,VWS V13.01,2013-06-20 00:43:00,
2013-06-19 19:48:00,81.1,63.4,29.95,SE,125,2.7,2.7,55,0.00,,,0.00,VWS V13.01,2013-06-20 00:48:00,
2013-06-19 19:53:00,81.1,63.4,29.95,East,100,0.0,2.2,55,0.00,,,0.00,VWS V13.01,2013-06-20 00:53:00,
2013-06-19 19:58:00,80.9,63.3,29.95,East,97,2.2,3.1,55,0.00,,,0.00,VWS V13.01,2013-06-20 00:58:00,
2013-06-19 20:03:00,80.8,63.1,29.95,ESE,104,2.7,2.7,55,0.00,,,0.00,VWS V13.01,2013-06-20 01:03:00,
2013-06-19 20:08:00,80.4,63.3,29.95,East,88,2.7,3.6,56,0.00,,,0.00,VWS V13.01,2013-06-20 01:08:00,
2013-06-19 20:13:00,80.4,63.3,29.95,East,89,2.7,2.7,56,0.00,,,0.00,VWS V13.01,2013-06-20 01:13:00,
2013-06-19 20:18:00,80.0,63.5,29.95,ENE,68,0.0,0.0,57,0.00,,,0.00,VWS V13.01,2013-06-20 01:18:00,
2013-06-19 20:23:00,79.9,63.8,29.95,ENE,57,2.2,2.2,58,0.00,,,0.00,VWS V13.01,2013-06-20 01:23:00,
2013-06-19 20:28:00,79.9,63.8,29.95,East,81,2.2,2.2,58,0.00,,,0.00,VWS V13.01,2013-06-20 01:28:00,
2013-06-19 20:32:00,79.7,64.1,29.95,ENE,62,2.7,2.7,59,0.00,,,0.00,VWS V13.01,2013-06-20 01:32:00,
2013-06-19 20:37:00,79.5,64.4,29.95,ENE,62,0.0,0.0,60,0.00,,,0.00,VWS V13.01,2013-06-20 01:37:00,
2013-06-19 20:42:00,79.1,64.1,29.95,ENE,62,0.0,0.0,60,0.00,,,0.00,VWS V13.01,2013-06-20 01:42:00,
2013-06-19 20:47:00,78.8,64.2,29.95,ENE,62,0.0,0.0,61,0.00,,,0.00,VWS V13.01,2013-06-20 01:47:00,
2013-06-19 20:52:00,78.4,64.3,29.95,ENE,62,0.0,0.0,62,0.00,,,0.00,VWS V13.01,2013-06-20 01:52:00,
2013-06-19 20:57:00,78.1,64.4,29.95,ENE,62,0.0,0.0,63,0.00,,,0.00,VWS V13.01,2013-06-20 01:57:00,
2013-06-19 21:02:00,77.7,64.6,29.95,ENE,62,0.0,0.0,64,0.00,,,0.00,VWS V13.01,2013-06-20 02:02:00,
2013-06-19 21:07:00,77.7,64.6,29.95,ENE,62,0.0,0.0,64,0.00,,,0.00,VWS V13.01,2013-06-20 02:07:00,
2013-06-19 21:12:00,77.5,65.3,29.95,ENE,62,0.0,0.0,66,0.00,,,0.00,VWS V13.01,2013-06-20 02:12:00,
2013-06-19 21:17:00,77.2,65.4,29.95,ENE,62,0.0,0.0,67,0.00,,,0.00,VWS V13.01,2013-06-20 02:17:00,
2013-06-19 21:22:00,77.0,66.0,29.95,ENE,62,0.0,0.0,69,0.00,,,0.00,VWS V13.01,2013-06-20 02:22:00,
2013-06-19 21:27:00,76.6,65.3,29.95,ENE,62,0.0,0.0,68,0.00,,,0.00,VWS V13.01,2013-06-20 02:27:00,
2013-06-19 21:32:00,76.4,66.8,29.95,NE,47,2.7,2.7,72,0.00,,,0.00,VWS V13.01,2013-06-20 02:32:00,
2013-06-19 21:37:00,76.1,66.4,29.95,NE,42,2.2,2.2,72,0.00,,,0.00,VWS V13.01,2013-06-20 02:37:00,
2013-06-19 21:42:00,75.9,65.8,29.95,NE,42,0.0,0.0,71,0.00,,,0.00,VWS V13.01,2013-06-20 02:42:00,
2013-06-19 21:47:00,75.7,66.8,29.95,NE,42,0.0,0.0,74,0.00,,,0.00,VWS V13.01,2013-06-20 02:47:00,
2013-06-19 21:52:00,75.5,66.7,29.95,NE,42,0.0,0.0,74,0.00,,,0.00,VWS V13.01,2013-06-20 02:52:00,
2013-06-19 21:57:00,75.2,65.9,29.95,NE,42,0.0,0.0,73,0.00,,,0.00,VWS V13.01,2013-06-20 02:57:00,
2013-06-19 22:02:00,75.0,66.2,29.98,NE,42,0.0,0.0,74,0.00,,,0.00,VWS V13.01,2013-06-20 03:02:00,
2013-06-19 22:07:00,74.6,66.6,29.98,NE,42,0.0,0.0,76,0.00,,,0.00,VWS V13.01,2013-06-20 03:07:00,
2013-06-19 22:12:00,74.3,66.2,29.98,NE,42,0.0,0.0,76,0.00,,,0.00,VWS V13.01,2013-06-20 03:12:00,
2013-06-19 22:17:00,74.1,66.1,29.98,NE,42,0.0,0.0,76,0.00,,,0.00,VWS V13.01,2013-06-20 03:17:00,
2013-06-19 22:22:00,73.9,66.3,29.98,NE,42,0.0,0.0,77,0.00,,,0.00,VWS V13.01,2013-06-20 03:22:00,
2013-06-19 22:27:00,73.7,65.7,29.98,NE,42,0.0,0.0,76,0.00,,,0.00,VWS V13.01,2013-06-20 03:27:00,
2013-06-19 22:32:00,73.6,65.9,29.98,NE,42,0.0,0.0,77,0.00,,,0.00,VWS V13.01,2013-06-20 03:32:00,
2013-06-19 22:37:00,73.4,65.7,29.98,NE,42,0.0,0.0,77,0.00,,,0.00,VWS V13.01,2013-06-20 03:37:00,
2013-06-19 22:42:00,73.2,65.2,29.98,NE,42,0.0,0.0,76,0.00,,,0.00,VWS V13.01,2013-06-20 03:42:00,
2013-06-19 22:47:00,73.0,65.4,29.98,NE,42,0.0,0.0,77,0.00,,,0.00,VWS V13.01,2013-06-20 03:47:00,
2013-06-19 22:52:00,72.8,66.3,29.98,NE,42,0.0,0.0,80,0.00,,,0.00,VWS V13.01,2013-06-20 03:52:00,
2013-06-19 22:57:00,72.3,65.4,29.98,NE,42,0.0,0.0,79,0.00,,,0.00,VWS V13.01,2013-06-20 03:57:00,
2013-06-19 23:01:00,72.1,66.0,29.98,NE,42,0.0,0.0,81,0.00,,,0.00,VWS V13.01,2013-06-20 04:01:00,
2013-06-19 23:06:00,71.8,66.0,29.98,NE,42,0.0,0.0,82,0.00,,,0.00,VWS V13.01,2013-06-20 04:06:00,
2013-06-19 23:11:00,71.6,65.8,29.98,NE,42,0.0,0.0,82,0.00,,,0.00,VWS V13.01,2013-06-20 04:11:00,
2013-06-19 23:16:00,71.4,65.6,29.98,NE,42,0.0,0.0,82,0.00,,,0.00,VWS V13.01,2013-06-20 04:16:00,
2013-06-19 23:21:00,71.2,65.8,29.98,NE,42,0.0,0.0,83,0.00,,,0.00,VWS V13.01,2013-06-20 04:21:00,
2013-06-19 23:26:00,70.9,65.8,29.98,NE,42,0.0,0.0,84,0.00,,,0.00,VWS V13.01,2013-06-20 04:26:00,
2013-06-19 23:31:00,70.7,66.0,29.98,NE,42,0.0,0.0,85,0.00,,,0.00,VWS V13.01,2013-06-20 04:31:00,
2013-06-19 23:36:00,70.5,66.1,29.98,NE,42,0.0,0.0,86,0.00,,,0.00,VWS V13.01,2013-06-20 04:36:00,
2013-06-19 23:41:00,70.1,66.1,29.98,NE,42,0.0,0.0,87,0.00,,,0.00,VWS V13.01,2013-06-20 04:41:00,
2013-06-19 23:46:00,70.0,65.6,29.98,NE,42,0.0,0.0,86,0.00,,,0.00,VWS V13.01,2013-06-20 04:46:00,
2013-06-19 23:51:00,69.8,65.4,29.98,NE,42,0.0,0.0,86,0.00,,,0.00,VWS V13.01,2013-06-20 04:51:00,
2013-06-19 23:56:00,69.8,65.1,29.98,NE,42,0.0,0.0,85,0.00,,,0.00,VWS V13.01,2013-06-20 04:56:00,